createdAt,value
2022-12-27T00:00:13.176Z,61.37
2022-12-27T00:01:17.405Z,61.29
2022-12-27T00:02:21.962Z,61.5
2022-12-27T00:03:26.313Z,61.51
2022-12-27T00:04:30.583Z,61.61
2022-12-27T00:05:34.823Z,61.94
2022-12-27T00:06:39.065Z,61.7
2022-12-27T00:07:43.321Z,61.31
2022-12-27T00:08:47.627Z,61.48
2022-12-27T00:09:51.909Z,61.91
2022-12-27T00:10:56.174Z,62.05
2022-12-27T00:12:02.163Z,62.12
2022-12-27T00:13:06.396Z,62.29
2022-12-27T00:14:10.692Z,62.26
2022-12-27T00:15:14.931Z,62.32
2022-12-27T00:16:19.390Z,62.41
2022-12-27T00:17:23.676Z,61.92
2022-12-27T00:18:27.962Z,62.39
2022-12-27T00:19:33.302Z,62.05
2022-12-27T00:20:37.534Z,62.47
2022-12-27T00:21:41.785Z,61.59
2022-12-27T00:22:47.037Z,61.44
2022-12-27T00:23:51.303Z,61.97
2022-12-27T00:24:55.570Z,62.48
2022-12-27T00:25:59.845Z,62.41
2022-12-27T00:27:04.112Z,62.18
2022-12-27T00:28:08.377Z,62.62
2022-12-27T00:29:12.653Z,62.6
2022-12-27T00:30:17.031Z,62.67
2022-12-27T00:31:21.503Z,62.25
2022-12-27T00:32:25.763Z,62.34
2022-12-27T00:33:30.047Z,62.8
2022-12-27T00:34:34.314Z,62.12
2022-12-27T00:35:38.574Z,62.57
2022-12-27T00:36:42.897Z,61.88
2022-12-27T00:37:47.134Z,61.97
2022-12-27T00:38:51.402Z,62.44
2022-12-27T00:39:55.636Z,61.94
2022-12-27T00:40:59.916Z,62.55
2022-12-27T00:42:04.175Z,62.15
2022-12-27T00:43:08.437Z,62.56
2022-12-27T00:44:12.731Z,62.94
2022-12-27T00:45:17.008Z,62.76
2022-12-27T00:46:21.308Z,63.01
2022-12-27T00:47:25.538Z,62.4
2022-12-27T00:48:29.807Z,62.61
2022-12-27T00:49:34.055Z,62.7
2022-12-27T00:50:38.349Z,62.96
2022-12-27T00:51:42.633Z,62.93
2022-12-27T00:52:46.936Z,62.79
2022-12-27T00:53:51.191Z,62.17
2022-12-27T00:54:55.474Z,63.13
2022-12-27T00:55:59.753Z,63.13
2022-12-27T00:57:04.004Z,62.79
2022-12-27T00:58:08.260Z,62.23
2022-12-27T00:59:12.526Z,63.21
2022-12-27T01:00:16.762Z,63.16
2022-12-27T01:01:21.724Z,63.3
2022-12-27T01:02:26.290Z,62.85
2022-12-27T01:03:30.657Z,63.06
2022-12-27T01:04:35.008Z,63.09
2022-12-27T01:05:39.305Z,63.29
2022-12-27T01:06:43.552Z,63.03
2022-12-27T01:07:47.812Z,62.66
2022-12-27T01:08:52.066Z,62.48
2022-12-27T01:09:56.311Z,63.19
2022-12-27T01:11:00.613Z,63.03
2022-12-27T01:12:04.909Z,63.04
2022-12-27T01:13:09.162Z,63.34
2022-12-27T01:14:13.415Z,62.71
2022-12-27T01:15:17.670Z,62.42
2022-12-27T01:16:22.171Z,62.41
2022-12-27T01:17:26.478Z,62.4
2022-12-27T01:18:30.751Z,62.73
2022-12-27T01:19:35.013Z,62.35
2022-12-27T01:20:39.294Z,63.12
2022-12-27T01:21:43.580Z,63.33
2022-12-27T01:22:47.824Z,63.28
2022-12-27T01:23:52.125Z,63.09
2022-12-27T01:24:56.465Z,62.33
2022-12-27T01:26:00.705Z,62.3
2022-12-27T01:27:05.012Z,62.87
2022-12-27T01:28:09.266Z,62.65
2022-12-27T01:29:13.553Z,63.3
2022-12-27T01:30:17.800Z,62.75
2022-12-27T01:31:22.252Z,62.47
2022-12-27T01:32:26.566Z,62.37
2022-12-27T01:33:30.844Z,62.78
2022-12-27T01:34:35.089Z,62.35
2022-12-27T01:35:39.348Z,62.7
2022-12-27T01:36:43.600Z,63.11
2022-12-27T01:37:47.841Z,63.1
2022-12-27T01:38:52.114Z,62.46
2022-12-27T01:39:56.670Z,62.46
2022-12-27T01:41:00.935Z,63.12
2022-12-27T01:42:05.191Z,63.32
2022-12-27T01:43:09.562Z,62.64
2022-12-27T01:44:13.881Z,62.45
2022-12-27T01:45:18.218Z,62.76
2022-12-27T01:46:22.488Z,62.95
2022-12-27T01:47:26.728Z,63.39
2022-12-27T01:48:31.005Z,62.99
2022-12-27T01:49:36.268Z,62.5
2022-12-27T01:50:40.551Z,62.91
2022-12-27T01:51:44.839Z,62.86
2022-12-27T01:52:49.095Z,62.74
2022-12-27T01:53:53.351Z,63.23
2022-12-27T01:54:57.630Z,62.61
2022-12-27T01:56:01.897Z,62.59
2022-12-27T01:57:06.184Z,62.86
2022-12-27T01:58:10.429Z,62.42
2022-12-27T01:59:14.675Z,62.29
2022-12-27T02:00:18.981Z,62.74
2022-12-27T02:01:23.722Z,62.9
2022-12-27T02:02:28.376Z,63.19
2022-12-27T02:03:32.675Z,62.52
2022-12-27T02:04:37.006Z,62.73
2022-12-27T02:05:41.293Z,62.41
2022-12-27T02:06:45.564Z,62.23
2022-12-27T02:07:49.913Z,62.51
2022-12-27T02:08:54.156Z,62.23
2022-12-27T02:09:58.454Z,62.88
2022-12-27T02:11:02.732Z,62.84
2022-12-27T02:12:07.022Z,62.89
2022-12-27T02:13:11.274Z,62.76
2022-12-27T02:14:15.544Z,62.84
2022-12-27T02:15:19.860Z,62.56
2022-12-27T02:16:24.396Z,63.14
2022-12-27T02:17:28.673Z,62.67
2022-12-27T02:18:32.949Z,62.83
2022-12-27T02:19:37.224Z,62.82
2022-12-27T02:20:41.461Z,62.52
2022-12-27T02:21:45.765Z,62.75
2022-12-27T02:22:49.999Z,62.19
2022-12-27T02:23:54.448Z,62.59
2022-12-27T02:24:58.806Z,62.35
2022-12-27T02:26:03.221Z,62.5
2022-12-27T02:27:07.499Z,62.57
2022-12-27T02:28:11.740Z,63.26
2022-12-27T02:29:15.999Z,62.71
2022-12-27T02:30:20.296Z,63.12
2022-12-27T02:31:24.562Z,62.51
2022-12-27T02:32:28.873Z,63.36
2022-12-27T02:33:33.142Z,63.06
2022-12-27T02:34:37.410Z,62.64
2022-12-27T02:35:41.677Z,62.78
2022-12-27T02:36:45.911Z,62.78
2022-12-27T02:37:50.164Z,62.51
2022-12-27T02:38:54.451Z,62.87
2022-12-27T02:39:58.690Z,63.38
2022-12-27T02:41:02.999Z,63.62
2022-12-27T02:42:07.261Z,62.57
2022-12-27T02:43:11.521Z,62.41
2022-12-27T02:44:15.765Z,62.41
2022-12-27T02:45:20.077Z,62.35
2022-12-27T02:46:24.651Z,62.95
2022-12-27T02:47:28.951Z,62.6
2022-12-27T02:48:33.197Z,63.46
2022-12-27T02:49:37.486Z,62.62
2022-12-27T02:50:41.760Z,62.79
2022-12-27T02:51:46.070Z,62.87
2022-12-27T02:52:50.322Z,62.8
2022-12-27T02:53:54.568Z,62.82
2022-12-27T02:54:58.831Z,62.62
2022-12-27T02:56:03.071Z,62.76
2022-12-27T02:57:07.339Z,62.71
2022-12-27T02:58:11.631Z,62.61
2022-12-27T02:59:15.928Z,62.48
2022-12-27T03:00:20.192Z,62.58
2022-12-27T03:01:24.942Z,62.48
2022-12-27T03:02:29.933Z,62.65
2022-12-27T03:03:36.330Z,63
2022-12-27T03:04:41.575Z,62.56
2022-12-27T03:05:45.820Z,62.73
2022-12-27T03:06:50.069Z,62.73
2022-12-27T03:07:54.337Z,62.94
2022-12-27T03:08:58.648Z,62.91
2022-12-27T03:10:02.911Z,62.69
2022-12-27T03:11:07.176Z,62.56
2022-12-27T03:12:11.422Z,62.62
2022-12-27T03:13:15.695Z,63.39
2022-12-27T03:14:20.006Z,62.89
2022-12-27T03:15:26.019Z,63.36
2022-12-27T03:16:33.245Z,63.25
2022-12-27T03:17:37.516Z,62.97
2022-12-27T03:18:41.783Z,62.92
2022-12-27T03:19:46.056Z,62.67
2022-12-27T03:20:50.285Z,63.57
2022-12-27T03:21:54.552Z,63.61
2022-12-27T03:22:58.817Z,62.84
2022-12-27T03:24:03.074Z,63
2022-12-27T03:25:07.344Z,63.13
2022-12-27T03:26:11.612Z,63.51
2022-12-27T03:27:15.897Z,63.49
2022-12-27T03:28:20.175Z,63.31
2022-12-27T03:29:24.417Z,63.01
2022-12-27T03:30:28.671Z,62.99
2022-12-27T03:31:32.949Z,63.11
2022-12-27T03:32:39.498Z,63.13
2022-12-27T03:33:44.011Z,62.96
2022-12-27T03:34:48.253Z,62.97
2022-12-27T03:35:52.482Z,63.09
2022-12-27T03:36:56.720Z,62.72
2022-12-27T03:38:01.067Z,62.66
2022-12-27T03:39:05.344Z,62.84
2022-12-27T03:40:09.649Z,62.72
2022-12-27T03:41:13.888Z,62.98
2022-12-27T03:42:18.151Z,63.14
2022-12-27T03:43:22.420Z,62.9
2022-12-27T03:44:26.811Z,62.92
2022-12-27T03:45:31.084Z,63.02
2022-12-27T03:46:35.868Z,63.14
2022-12-27T03:47:40.269Z,63.1
2022-12-27T03:48:44.517Z,63.68
2022-12-27T03:49:48.781Z,63.85
2022-12-27T03:50:53.085Z,62.98
2022-12-27T03:51:57.380Z,63.53
2022-12-27T03:53:01.639Z,62.89
2022-12-27T03:54:05.947Z,62.81
2022-12-27T03:55:10.206Z,62.49
2022-12-27T03:56:14.697Z,63.21
2022-12-27T03:57:18.923Z,62.47
2022-12-27T03:58:23.207Z,62.38
2022-12-27T03:59:27.546Z,62.55
2022-12-27T04:00:31.834Z,62.39
2022-12-27T04:01:36.593Z,63.18
2022-12-27T04:02:41.537Z,62.86
2022-12-27T04:03:45.914Z,62.72
2022-12-27T04:04:50.217Z,62.7
2022-12-27T04:05:54.564Z,62.45
2022-12-27T04:06:58.818Z,63.1
2022-12-27T04:08:03.099Z,63.19
2022-12-27T04:09:07.359Z,62.67
2022-12-27T04:10:11.609Z,62.43
2022-12-27T04:11:15.904Z,63.36
2022-12-27T04:12:20.123Z,62.66
2022-12-27T04:13:24.349Z,62.53
2022-12-27T04:14:28.583Z,63.25
2022-12-27T04:15:32.813Z,62.96
2022-12-27T04:16:37.089Z,62.45
2022-12-27T04:17:41.343Z,62.69
2022-12-27T04:18:45.598Z,63.22
2022-12-27T04:19:49.910Z,62.58
2022-12-27T04:20:54.208Z,63.4
2022-12-27T04:21:58.455Z,63.04
2022-12-27T04:23:02.944Z,62.87
2022-12-27T04:24:07.185Z,63.29
2022-12-27T04:25:11.438Z,62.94
2022-12-27T04:26:15.724Z,62.68
2022-12-27T04:27:19.955Z,63.04
2022-12-27T04:28:24.267Z,62.87
2022-12-27T04:29:28.539Z,62.64
2022-12-27T04:30:32.799Z,63.33
2022-12-27T04:31:37.359Z,62.61
2022-12-27T04:32:41.696Z,63.58
2022-12-27T04:33:46.039Z,63.62
2022-12-27T04:34:50.282Z,63.35
2022-12-27T04:35:54.541Z,63.65
2022-12-27T04:36:58.811Z,62.88
2022-12-27T04:38:03.066Z,63.58
2022-12-27T04:39:07.795Z,63.49
2022-12-27T04:40:12.111Z,63.2
2022-12-27T04:41:16.372Z,62.82
2022-12-27T04:42:20.628Z,62.95
2022-12-27T04:43:24.893Z,62.79
2022-12-27T04:44:29.173Z,63.2
2022-12-27T04:45:33.495Z,63.34
2022-12-27T04:46:38.040Z,63.26
2022-12-27T04:47:42.410Z,62.81
2022-12-27T04:48:46.646Z,63.54
2022-12-27T04:49:50.907Z,63.51
2022-12-27T04:50:55.221Z,63.5
2022-12-27T04:51:59.464Z,63.49
2022-12-27T04:53:03.725Z,63.25
2022-12-27T04:54:08.019Z,63.12
2022-12-27T04:55:12.249Z,62.93
2022-12-27T04:56:16.554Z,63.41
2022-12-27T04:57:20.794Z,63.07
2022-12-27T04:58:28.194Z,63.6
2022-12-27T04:59:32.465Z,63.23
2022-12-27T05:00:36.743Z,62.56
2022-12-27T05:01:41.325Z,63.48
2022-12-27T05:02:46.411Z,62.98
2022-12-27T05:03:51.005Z,62.48
2022-12-27T05:04:55.279Z,62.74
2022-12-27T05:05:59.626Z,62.7
2022-12-27T05:07:03.889Z,61.96
2022-12-27T05:08:08.174Z,61.18
2022-12-27T05:09:12.400Z,60.7
2022-12-27T05:10:16.644Z,60.13
2022-12-27T05:11:20.918Z,59.42
2022-12-27T05:12:25.186Z,58.7
2022-12-27T05:13:29.448Z,58.83
2022-12-27T05:14:33.672Z,58.68
2022-12-27T05:15:37.937Z,58.31
2022-12-27T05:16:42.488Z,58.16
2022-12-27T05:17:46.864Z,57.83
2022-12-27T05:18:51.121Z,57.71
2022-12-27T05:19:55.360Z,57.41
2022-12-27T05:20:59.614Z,57.16
2022-12-27T05:22:05.056Z,56.98
2022-12-27T05:23:09.280Z,56.97
2022-12-27T05:24:13.628Z,56.81
2022-12-27T05:25:17.950Z,56.62
2022-12-27T05:26:22.191Z,56.36
2022-12-27T05:27:26.439Z,56.49
2022-12-27T05:28:30.717Z,56.51
2022-12-27T05:29:34.961Z,56.19
2022-12-27T05:30:39.220Z,56.16
2022-12-27T05:31:43.734Z,56.11
2022-12-27T05:32:48.066Z,56.02
2022-12-27T05:33:52.334Z,56
2022-12-27T05:34:56.582Z,56
2022-12-27T05:36:00.822Z,55.91
2022-12-27T05:37:05.087Z,55.76
2022-12-27T05:38:10.406Z,55.68
2022-12-27T05:39:14.671Z,55.61
2022-12-27T05:40:18.921Z,55.51
2022-12-27T05:41:23.192Z,55.5
2022-12-27T05:42:27.436Z,55.4
2022-12-27T05:43:31.736Z,55.42
2022-12-27T05:44:35.999Z,55.39
2022-12-27T05:45:40.311Z,55.31
2022-12-27T05:46:44.705Z,55.22
2022-12-27T05:47:49.011Z,55.18
2022-12-27T05:48:53.278Z,55.17
2022-12-27T05:49:57.546Z,55.25
2022-12-27T05:51:01.828Z,55.16
2022-12-27T05:52:06.122Z,55.17
2022-12-27T05:53:10.394Z,55.25
2022-12-27T05:54:14.694Z,55.25
2022-12-27T05:55:18.942Z,55.23
2022-12-27T05:56:23.171Z,55.25
2022-12-27T05:57:27.510Z,55.25
2022-12-27T05:58:31.769Z,55.29
2022-12-27T05:59:36.035Z,55.22
2022-12-27T06:00:40.288Z,55.33
2022-12-27T06:01:45.257Z,55.38
2022-12-27T06:02:50.235Z,55.41
2022-12-27T06:03:54.607Z,55.33
2022-12-27T06:04:59.717Z,55.47
2022-12-27T06:06:03.979Z,55.48
2022-12-27T06:07:08.241Z,55.57
2022-12-27T06:08:12.547Z,55.58
2022-12-27T06:09:16.830Z,55.5
2022-12-27T06:10:21.074Z,55.48
2022-12-27T06:11:25.340Z,55.64
2022-12-27T06:12:32.568Z,55.67
2022-12-27T06:13:36.836Z,55.69
2022-12-27T06:14:41.099Z,55.59
2022-12-27T06:15:45.340Z,55.6
2022-12-27T06:16:49.817Z,55.93
2022-12-27T06:17:54.130Z,56.02
2022-12-27T06:18:58.408Z,55.86
2022-12-27T06:20:02.675Z,56.08
2022-12-27T06:21:06.931Z,55.74
2022-12-27T06:22:11.186Z,55.84
2022-12-27T06:23:15.446Z,56.05
2022-12-27T06:24:19.729Z,56.09
2022-12-27T06:25:23.988Z,55.82
2022-12-27T06:26:28.271Z,56.06
2022-12-27T06:27:32.520Z,55.72
2022-12-27T06:28:36.746Z,55.14
2022-12-27T06:29:41.015Z,55.38
2022-12-27T06:30:45.252Z,55.16
2022-12-27T06:31:49.759Z,54.76
2022-12-27T06:32:54.149Z,54.4
2022-12-27T06:33:58.388Z,54.21
2022-12-27T06:35:02.644Z,54.21
2022-12-27T06:36:06.878Z,54.07
2022-12-27T06:37:11.299Z,53.87
2022-12-27T06:38:15.812Z,54.03
2022-12-27T06:39:20.103Z,53.96
2022-12-27T06:40:24.359Z,53.93
2022-12-27T06:41:28.570Z,53.99
2022-12-27T06:42:32.847Z,53.84
2022-12-27T06:43:37.180Z,53.93
2022-12-27T06:44:41.429Z,54.03
2022-12-27T06:45:45.840Z,54.03
2022-12-27T06:46:50.090Z,54.06
2022-12-27T06:47:54.338Z,54.07
2022-12-27T06:48:58.598Z,54.08
2022-12-27T06:50:02.883Z,54.06
2022-12-27T06:51:07.215Z,54.06
2022-12-27T06:52:11.505Z,54.28
2022-12-27T06:53:15.765Z,54.29
2022-12-27T06:54:20.026Z,54.28
2022-12-27T06:55:24.286Z,54.32
2022-12-27T06:56:28.548Z,54.24
2022-12-27T06:57:32.794Z,54.43
2022-12-27T06:58:37.064Z,54.48
2022-12-27T06:59:41.294Z,54.58
2022-12-27T07:00:46.627Z,54.77
2022-12-27T07:01:54.146Z,54.57
2022-12-27T07:02:58.718Z,54.72
2022-12-27T07:04:02.985Z,54.8
2022-12-27T07:05:07.223Z,54.67
2022-12-27T07:06:11.488Z,54.68
2022-12-27T07:07:18.120Z,54.76
2022-12-27T07:08:22.348Z,54.69
2022-12-27T07:09:26.602Z,54.84
2022-12-27T07:10:30.974Z,54.93
2022-12-27T07:11:35.284Z,54.82
2022-12-27T07:12:39.602Z,54.96
2022-12-27T07:13:43.863Z,54.77
2022-12-27T07:14:48.136Z,55
2022-12-27T07:15:52.381Z,55.07
2022-12-27T07:16:56.783Z,55.07
2022-12-27T07:18:01.118Z,55.05
2022-12-27T07:19:05.380Z,55.05
2022-12-27T07:20:09.644Z,55.02
2022-12-27T07:21:13.934Z,55.01
2022-12-27T07:22:18.243Z,55.12
2022-12-27T07:23:22.584Z,55.1
2022-12-27T07:24:26.826Z,55.12
2022-12-27T07:25:31.086Z,55.16
2022-12-27T07:26:35.382Z,55.04
2022-12-27T07:27:39.684Z,55.06
2022-12-27T07:28:43.995Z,55.07
2022-12-27T07:29:48.234Z,55.19
2022-12-27T07:30:52.504Z,55.02
2022-12-27T07:31:57.017Z,54.71
2022-12-27T07:33:01.321Z,54.11
2022-12-27T07:34:05.676Z,54.07
2022-12-27T07:35:10.006Z,53.87
2022-12-27T07:36:14.271Z,53.66
2022-12-27T07:37:18.506Z,53.43
2022-12-27T07:38:22.764Z,53.4
2022-12-27T07:39:27.039Z,53.18
2022-12-27T07:40:31.273Z,53.17
2022-12-27T07:41:35.560Z,53.29
2022-12-27T07:42:39.820Z,53.06
2022-12-27T07:43:44.419Z,53.18
2022-12-27T07:44:48.706Z,53.02
2022-12-27T07:45:53.045Z,53.03
2022-12-27T07:46:57.405Z,53.19
2022-12-27T07:48:01.651Z,53.08
2022-12-27T07:49:05.958Z,53.26
2022-12-27T07:50:10.235Z,53.17
2022-12-27T07:51:14.495Z,53.16
2022-12-27T07:52:18.742Z,53.21
2022-12-27T07:53:22.968Z,53.25
2022-12-27T07:54:27.249Z,53.33
2022-12-27T07:55:31.510Z,53.34
2022-12-27T07:56:35.755Z,53.52
2022-12-27T07:57:40.001Z,53.33
2022-12-27T07:58:44.288Z,53.49
2022-12-27T07:59:48.597Z,53.42
2022-12-27T08:00:53.059Z,53.54
2022-12-27T08:01:58.017Z,53.62
2022-12-27T08:03:02.450Z,53.69
2022-12-27T08:04:06.739Z,53.63
2022-12-27T08:05:11.082Z,53.86
2022-12-27T08:06:15.331Z,53.98
2022-12-27T08:07:19.606Z,53.79
2022-12-27T08:08:23.861Z,53.99
2022-12-27T08:09:28.112Z,54.02
2022-12-27T08:10:32.466Z,53.91
2022-12-27T08:11:36.727Z,54.04
2022-12-27T08:12:41.004Z,54.24
2022-12-27T08:13:45.252Z,54.11
2022-12-27T08:14:49.496Z,54.5
2022-12-27T08:15:53.803Z,54.2
2022-12-27T08:16:58.196Z,54.29
2022-12-27T08:18:02.503Z,54.27
2022-12-27T08:19:10.540Z,54.52
2022-12-27T08:20:14.799Z,54.26
2022-12-27T08:21:19.360Z,54.34
2022-12-27T08:22:23.629Z,54.34
2022-12-27T08:23:27.888Z,54.07
2022-12-27T08:24:32.175Z,54.08
2022-12-27T08:25:36.484Z,54.25
2022-12-27T08:26:40.722Z,54.33
2022-12-27T08:27:44.985Z,54.4
2022-12-27T08:28:49.289Z,54.3
2022-12-27T08:29:53.559Z,54.23
2022-12-27T08:30:57.958Z,54.39
2022-12-27T08:32:02.245Z,54.41
2022-12-27T08:33:06.502Z,54.19
2022-12-27T08:34:10.773Z,54.33
2022-12-27T08:35:55.275Z,54.21
2022-12-27T08:36:59.608Z,54.19
2022-12-27T08:38:03.924Z,54.32
2022-12-27T08:39:08.198Z,54.36
2022-12-27T08:40:12.489Z,54.33
2022-12-27T08:41:17.779Z,54.24
2022-12-27T08:42:22.034Z,54.04
2022-12-27T08:43:26.303Z,53.93
2022-12-27T08:44:30.574Z,53.72
2022-12-27T08:45:34.864Z,53.37
2022-12-27T08:46:39.471Z,53.2
2022-12-27T08:47:43.762Z,53.16
2022-12-27T08:48:48.020Z,53
2022-12-27T08:49:52.325Z,52.84
2022-12-27T08:50:56.561Z,52.87
2022-12-27T08:52:00.862Z,52.75
2022-12-27T08:53:05.151Z,52.9
2022-12-27T08:54:09.436Z,52.87
2022-12-27T08:55:13.725Z,52.91
2022-12-27T08:56:17.984Z,53.01
2022-12-27T08:57:22.273Z,52.89
2022-12-27T08:58:26.557Z,52.88
2022-12-27T08:59:31.835Z,53.04
2022-12-27T09:00:36.111Z,53.01
2022-12-27T09:01:40.698Z,53.07
2022-12-27T09:02:45.699Z,53.03
2022-12-27T09:03:50.069Z,53.03
2022-12-27T09:04:54.302Z,53.1
2022-12-27T09:05:58.577Z,53.24
2022-12-27T09:07:02.808Z,53.29
2022-12-27T09:08:07.140Z,53.26
2022-12-27T09:09:11.383Z,53.38
2022-12-27T09:10:15.638Z,53.46
2022-12-27T09:11:19.904Z,53.41
2022-12-27T09:12:24.174Z,53.61
2022-12-27T09:13:28.470Z,53.67
2022-12-27T09:14:32.850Z,53.73
2022-12-27T09:15:37.403Z,53.86
2022-12-27T09:16:41.656Z,53.87
2022-12-27T09:17:45.972Z,53.51
2022-12-27T09:18:50.311Z,53.63
2022-12-27T09:19:54.579Z,53.68
2022-12-27T09:20:58.841Z,53.37
2022-12-27T09:22:03.133Z,53.78
2022-12-27T09:23:07.396Z,53.75
2022-12-27T09:24:11.644Z,53.88
2022-12-27T09:25:16.005Z,53.65
2022-12-27T09:26:20.327Z,53.79
2022-12-27T09:27:24.640Z,53.73
2022-12-27T09:28:28.986Z,53.7
2022-12-27T09:29:33.246Z,53.62
2022-12-27T09:30:37.503Z,53.7
2022-12-27T09:31:41.750Z,53.54
2022-12-27T09:32:46.012Z,53.61
2022-12-27T09:33:50.278Z,53.45
2022-12-27T09:34:54.553Z,53.55
2022-12-27T09:35:58.842Z,53.14
2022-12-27T09:37:03.097Z,53.56
2022-12-27T09:38:07.342Z,53.36
2022-12-27T09:39:11.602Z,53.44
2022-12-27T09:40:15.901Z,53.28
2022-12-27T09:42:46.166Z,53.52
2022-12-27T09:43:52.807Z,53.46
2022-12-27T09:44:57.090Z,53.54
2022-12-27T09:46:01.509Z,53.55
2022-12-27T09:47:05.828Z,53.6
2022-12-27T09:48:10.058Z,53.59
2022-12-27T09:49:14.476Z,53.75
2022-12-27T09:50:18.748Z,53.1
2022-12-27T09:51:22.999Z,53.23
2022-12-27T09:52:27.263Z,52.57
2022-12-27T09:53:31.568Z,52.35
2022-12-27T09:54:35.866Z,51.98
2022-12-27T09:55:40.114Z,51.85
2022-12-27T09:57:21.128Z,51.61
2022-12-27T09:58:25.380Z,51.52
2022-12-27T09:59:29.651Z,51.49
2022-12-27T10:00:44.253Z,51.26
2022-12-27T10:01:50.615Z,51.33
2022-12-27T10:02:54.987Z,51.22
2022-12-27T10:04:00.296Z,51.32
2022-12-27T10:05:34.629Z,51.28
2022-12-27T10:06:38.934Z,51.32
2022-12-27T10:07:43.240Z,51.35
2022-12-27T10:08:47.743Z,51.43
2022-12-27T10:09:52.004Z,51.65
2022-12-27T10:10:56.300Z,51.78
2022-12-27T10:12:00.584Z,51.77
2022-12-27T10:13:04.864Z,51.53
2022-12-27T10:14:09.137Z,51.87
2022-12-27T10:15:14.521Z,51.72
2022-12-27T10:16:18.992Z,51.76
2022-12-27T10:17:23.342Z,51.89
2022-12-27T10:18:27.644Z,51.84
2022-12-27T10:19:31.899Z,52.01
2022-12-27T10:20:36.136Z,52.16
2022-12-27T10:21:40.412Z,52.13
2022-12-27T10:22:44.707Z,52.14
2022-12-27T10:23:49.016Z,52.59
2022-12-27T10:24:53.289Z,52.58
2022-12-27T10:26:00.941Z,52.69
2022-12-27T10:27:05.208Z,52.72
2022-12-27T10:28:09.489Z,52.51
2022-12-27T10:29:13.742Z,52.54
2022-12-27T10:30:18.077Z,52.66
2022-12-27T10:31:22.504Z,52.73
2022-12-27T10:32:26.870Z,52.75
2022-12-27T10:33:31.126Z,52.87
2022-12-27T10:34:35.373Z,52.75
2022-12-27T10:35:39.633Z,52.9
2022-12-27T10:36:43.918Z,53.22
2022-12-27T10:37:48.186Z,52.93
2022-12-27T10:38:52.450Z,52.88
2022-12-27T10:39:56.971Z,53.07
2022-12-27T10:41:01.227Z,52.74
2022-12-27T10:42:05.539Z,53.05
2022-12-27T10:43:09.868Z,52.61
2022-12-27T10:44:14.122Z,52.74
2022-12-27T10:45:18.358Z,52.68
2022-12-27T10:46:24.352Z,52.69
2022-12-27T10:47:31.769Z,52.8
2022-12-27T10:49:22.327Z,52.77
2022-12-27T10:50:26.689Z,52.69
2022-12-27T10:51:30.962Z,52.68
2022-12-27T10:52:35.269Z,52.7
2022-12-27T10:53:39.541Z,52.79
2022-12-27T10:54:43.812Z,52.76
2022-12-27T10:55:48.064Z,52.78
2022-12-27T10:56:52.394Z,52.43
2022-12-27T10:57:56.713Z,52.3
2022-12-27T10:59:01.367Z,52.84
2022-12-27T11:00:05.643Z,52.74
2022-12-27T11:01:10.044Z,52.84
2022-12-27T11:02:14.828Z,52.41
2022-12-27T11:03:19.204Z,52.44
2022-12-27T11:04:24.015Z,52.47
2022-12-27T11:05:28.301Z,52.68
2022-12-27T11:06:32.577Z,53.05
2022-12-27T11:07:36.895Z,52.96
2022-12-27T11:08:41.170Z,52.77
2022-12-27T11:09:52.468Z,51.97
2022-12-27T11:10:56.764Z,51.87
2022-12-27T11:12:01.074Z,51.67
2022-12-27T11:13:05.353Z,51.53
2022-12-27T11:14:09.603Z,51.32
2022-12-27T11:15:13.917Z,51.19
2022-12-27T11:16:18.288Z,51.18
2022-12-27T11:17:22.537Z,50.96
2022-12-27T11:18:26.813Z,51.09
2022-12-27T11:19:31.081Z,51.06
2022-12-27T11:20:35.335Z,51.12
2022-12-27T11:21:39.579Z,50.95
2022-12-27T11:22:43.857Z,51.27
2022-12-27T11:23:48.106Z,51.13
2022-12-27T11:24:52.365Z,51.14
2022-12-27T11:25:56.633Z,51.2
2022-12-27T11:27:00.960Z,51.21
2022-12-27T11:28:05.309Z,51.3
2022-12-27T11:29:09.613Z,51.5
2022-12-27T11:30:13.896Z,51.3
2022-12-27T11:31:18.441Z,51.27
2022-12-27T11:32:22.721Z,51.47
2022-12-27T11:33:27.382Z,51.56
2022-12-27T11:34:32.690Z,51.8
2022-12-27T11:35:36.926Z,51.77
2022-12-27T11:36:41.188Z,52.21
2022-12-27T11:37:45.492Z,52.17
2022-12-27T11:38:49.747Z,52.11
2022-12-27T11:39:54.002Z,51.8
2022-12-27T11:40:58.254Z,51.68
2022-12-27T11:42:02.596Z,52.05
2022-12-27T11:43:06.841Z,51.65
2022-12-27T11:44:11.134Z,49.11
2022-12-27T11:45:15.399Z,48.15
2022-12-27T11:46:19.966Z,48.52
2022-12-27T11:47:24.405Z,46.88
2022-12-27T11:48:28.704Z,47.44
2022-12-27T11:49:32.966Z,46.17
2022-12-27T11:50:37.215Z,46.96
2022-12-27T11:51:41.489Z,46.48
2022-12-27T11:52:45.733Z,46.29
2022-12-27T11:53:57.784Z,45.36
2022-12-27T11:55:02.032Z,44.7
2022-12-27T11:56:06.318Z,44.75
2022-12-27T11:57:10.598Z,44.51
2022-12-27T11:58:14.976Z,44.7
2022-12-27T11:59:19.221Z,44.61
2022-12-27T12:00:23.482Z,44.62
2022-12-27T12:01:28.017Z,44.98
2022-12-27T12:02:32.532Z,45.36
2022-12-27T12:03:37.005Z,46.04
2022-12-27T12:04:41.496Z,45.91
2022-12-27T12:05:45.800Z,45.97
2022-12-27T12:06:50.076Z,46.16
2022-12-27T12:07:54.321Z,46.24
2022-12-27T12:08:58.585Z,46.39
2022-12-27T12:10:02.923Z,46.37
2022-12-27T12:11:07.223Z,46.77
2022-12-27T12:12:11.505Z,46.56
2022-12-27T12:13:15.745Z,46.95
2022-12-27T12:14:20.044Z,46.88
2022-12-27T12:15:24.332Z,47.39
2022-12-27T12:16:28.705Z,47.41
2022-12-27T12:17:37.823Z,47.8
2022-12-27T12:18:42.097Z,47.5
2022-12-27T12:19:46.332Z,47.51
2022-12-27T12:20:53.058Z,47.62
2022-12-27T12:21:57.330Z,47.46
2022-12-27T12:23:01.625Z,47.38
2022-12-27T12:24:05.845Z,47.33
2022-12-27T12:25:10.119Z,47.41
2022-12-27T12:26:14.449Z,47.49
2022-12-27T12:27:18.691Z,47.55
2022-12-27T12:29:01.069Z,47.85
2022-12-27T12:30:05.446Z,47.95
2022-12-27T12:31:09.712Z,47.9
2022-12-27T12:32:13.992Z,47.95
2022-12-27T12:33:18.263Z,48.02
2022-12-27T12:34:22.546Z,48.23
2022-12-27T12:35:26.878Z,48.65
2022-12-27T12:36:31.161Z,48.45
2022-12-27T12:37:35.465Z,48.76
2022-12-27T12:38:39.815Z,48.75
2022-12-27T12:39:44.124Z,48.86
2022-12-27T12:40:48.383Z,48.93
2022-12-27T12:41:52.636Z,48.95
2022-12-27T12:42:56.945Z,49.23
2022-12-27T12:44:01.213Z,49.11
2022-12-27T12:45:05.567Z,49.17
2022-12-27T12:46:10.109Z,49.31
2022-12-27T12:47:14.425Z,49.53
2022-12-27T12:48:18.712Z,49.62
2022-12-27T12:49:23.011Z,49.73
2022-12-27T12:50:27.271Z,50.1
2022-12-27T12:51:31.589Z,50.13
2022-12-27T12:52:35.851Z,49.88
2022-12-27T12:53:40.100Z,50.04
2022-12-27T12:54:44.379Z,50.19
2022-12-27T12:55:48.644Z,50.32
2022-12-27T12:56:52.896Z,50.03
2022-12-27T12:57:57.392Z,50.36
2022-12-27T12:59:01.925Z,50.39
2022-12-27T13:00:06.276Z,50.71
2022-12-27T13:01:10.679Z,50.8
2022-12-27T13:02:15.538Z,50.71
2022-12-27T13:03:20.155Z,50.78
2022-12-27T13:04:24.481Z,50.83
2022-12-27T13:05:28.779Z,50.55
2022-12-27T13:06:33.051Z,51.02
2022-12-27T13:07:41.617Z,50.67
2022-12-27T13:08:45.913Z,51.04
2022-12-27T13:09:50.157Z,50.99
2022-12-27T13:10:54.436Z,50.92
2022-12-27T13:11:58.724Z,50.77
2022-12-27T13:13:03.012Z,50.99
2022-12-27T13:14:07.316Z,50.79
2022-12-27T13:15:11.939Z,50.8
2022-12-27T13:16:16.454Z,51.08
2022-12-27T13:17:20.710Z,50.78
2022-12-27T13:18:32.106Z,50.57
2022-12-27T13:19:36.368Z,50.85
2022-12-27T13:20:40.638Z,50.96
2022-12-27T13:21:44.925Z,51.19
2022-12-27T13:22:49.199Z,50.89
2022-12-27T13:23:53.484Z,51.03
2022-12-27T13:24:57.716Z,50.62
2022-12-27T13:26:02.001Z,50.65
2022-12-27T13:27:06.313Z,50.36
2022-12-27T13:28:10.571Z,50.36
2022-12-27T13:29:14.828Z,50.07
2022-12-27T13:30:19.167Z,50.2
2022-12-27T13:31:23.447Z,49.98
2022-12-27T13:32:27.698Z,49.94
2022-12-27T13:33:31.966Z,49.99
2022-12-27T13:34:36.233Z,49.88
2022-12-27T13:35:40.590Z,50.09
2022-12-27T13:36:44.876Z,50.08
2022-12-27T13:37:49.108Z,50.13
2022-12-27T13:38:53.375Z,50.13
2022-12-27T13:39:57.647Z,50.32
2022-12-27T13:41:01.906Z,50.38
2022-12-27T13:42:06.217Z,50.52
2022-12-27T13:43:10.569Z,50.59
2022-12-27T13:44:14.833Z,50.69
2022-12-27T13:45:19.085Z,50.67
2022-12-27T13:46:23.461Z,50.84
2022-12-27T13:47:27.771Z,51.04
2022-12-27T13:48:32.056Z,51.1
2022-12-27T13:49:36.318Z,51.13
2022-12-27T13:50:40.583Z,51.14
2022-12-27T13:51:44.854Z,51.38
2022-12-27T13:52:51.315Z,51.4
2022-12-27T13:53:58.729Z,51.61
2022-12-27T13:55:02.983Z,51.46
2022-12-27T13:56:55.623Z,51.81
2022-12-27T13:58:00.117Z,51.85